sensor_id;sensor_type;location;lat;lon;timestamp;temperature;humidity
13326;DHT22;6732;51.044;3.746;2023-03-23T12:59:49;22.30;58.80
13326;DHT22;6732;51.044;3.746;2023-03-23T13:02:27;19.50;64.40
13326;DHT22;6732;51.044;3.746;2023-03-23T13:05:09;18.90;67.10
13326;DHT22;6732;51.044;3.746;2023-03-23T13:07:47;18.80;67.70
13326;DHT22;6732;51.044;3.746;2023-03-23T13:10:47;18.90;67.40
13326;DHT22;6732;51.044;3.746;2023-03-23T13:13:19;18.90;67.50
13326;DHT22;6732;51.044;3.746;2023-03-23T13:25:48;17.60;65.50
13326;DHT22;6732;51.044;3.746;2023-03-23T13:28:23;17.20;66.40
13326;DHT22;6732;51.044;3.746;2023-03-23T13:33:46;16.20;69.70
13326;DHT22;6732;51.044;3.746;2023-03-23T13:36:18;15.80;71.10
13326;DHT22;6732;51.044;3.746;2023-03-23T13:38:47;15.50;72.10
13326;DHT22;6732;51.044;3.746;2023-03-23T13:41:17;15.40;73.50
13326;DHT22;6732;51.044;3.746;2023-03-23T13:43:44;15.30;75.00
13326;DHT22;6732;51.044;3.746;2023-03-23T13:46:12;15.10;75.10
13326;DHT22;6732;51.044;3.746;2023-03-23T13:48:44;15.00;75.00
13326;DHT22;6732;51.044;3.746;2023-03-23T13:51:34;15.00;75.00
13326;DHT22;6732;51.044;3.746;2023-03-23T13:54:13;14.90;74.60
13326;DHT22;6732;51.044;3.746;2023-03-23T14:05:09;14.70;76.00
13326;DHT22;6732;51.044;3.746;2023-03-23T14:07:56;14.70;76.50
13326;DHT22;6732;51.044;3.746;2023-03-23T14:10:35;14.70;76.90
13326;DHT22;6732;51.044;3.746;2023-03-23T14:13:03;14.70;77.10
13326;DHT22;6732;51.044;3.746;2023-03-23T14:15:37;14.70;77.40
13326;DHT22;6732;51.044;3.746;2023-03-23T14:18:06;14.70;77.60
13326;DHT22;6732;51.044;3.746;2023-03-23T14:20:34;14.70;77.70
13326;DHT22;6732;51.044;3.746;2023-03-23T14:23:02;14.60;78.10
13326;DHT22;6732;51.044;3.746;2023-03-23T14:25:29;14.60;78.40
13326;DHT22;6732;51.044;3.746;2023-03-23T14:27:57;14.60;78.10
13326;DHT22;6732;51.044;3.746;2023-03-23T14:30:27;14.60;78.20
13326;DHT22;6732;51.044;3.746;2023-03-23T14:33:05;14.70;78.20
13326;DHT22;6732;51.044;3.746;2023-03-23T14:35:34;14.60;78.50
13326;DHT22;6732;51.044;3.746;2023-03-23T14:38:01;14.60;78.60
13326;DHT22;6732;51.044;3.746;2023-03-23T14:40:29;14.70;79.10
13326;DHT22;6732;51.044;3.746;2023-03-23T14:42:56;14.70;79.50
13326;DHT22;6732;51.044;3.746;2023-03-23T14:45:23;14.70;79.40
13326;DHT22;6732;51.044;3.746;2023-03-23T14:47:53;14.70;79.10
13326;DHT22;6732;51.044;3.746;2023-03-23T14:50:27;14.70;78.60
13326;DHT22;6732;51.044;3.746;2023-03-23T14:53:07;14.70;78.20
13326;DHT22;6732;51.044;3.746;2023-03-23T14:55:35;14.70;78.10
13326;DHT22;6732;51.044;3.746;2023-03-23T14:58:08;14.70;77.60
13326;DHT22;6732;51.044;3.746;2023-03-23T15:00:45;14.70;77.50
13326;DHT22;6732;51.044;3.746;2023-03-23T15:03:14;14.70;77.80
13326;DHT22;6732;51.044;3.746;2023-03-23T15:05:46;14.70;78.20
13326;DHT22;6732;51.044;3.746;2023-03-23T15:08:26;14.70;78.10
13326;DHT22;6732;51.044;3.746;2023-03-23T15:11:11;14.70;78.00
13326;DHT22;6732;51.044;3.746;2023-03-23T15:13:41;14.70;78.30
13326;DHT22;6732;51.044;3.746;2023-03-23T15:16:18;14.70;78.30
13326;DHT22;6732;51.044;3.746;2023-03-23T15:19:04;14.70;78.00
13326;DHT22;6732;51.044;3.746;2023-03-23T15:21:45;14.70;78.10
13326;DHT22;6732;51.044;3.746;2023-03-23T15:24:38;14.70;77.70
13326;DHT22;6732;51.044;3.746;2023-03-23T15:27:12;14.80;77.70
13326;DHT22;6732;51.044;3.746;2023-03-23T15:29:59;14.80;77.80
13326;DHT22;6732;51.044;3.746;2023-03-23T15:32:36;14.70;77.90
13326;DHT22;6732;51.044;3.746;2023-03-23T15:35:10;14.80;78.10
13326;DHT22;6732;51.044;3.746;2023-03-23T15:37:53;14.80;77.70
13326;DHT22;6732;51.044;3.746;2023-03-23T15:40:23;14.80;77.50
13326;DHT22;6732;51.044;3.746;2023-03-23T15:43:05;14.80;77.60
13326;DHT22;6732;51.044;3.746;2023-03-23T15:45:31;14.80;77.70
13326;DHT22;6732;51.044;3.746;2023-03-23T15:48:17;14.80;77.70
13326;DHT22;6732;51.044;3.746;2023-03-23T15:50:46;14.80;77.70
13326;DHT22;6732;51.044;3.746;2023-03-23T15:53:26;14.80;77.90
13326;DHT22;6732;51.044;3.746;2023-03-23T15:55:52;14.80;78.60
13326;DHT22;6732;51.044;3.746;2023-03-23T15:58:18;14.80;79.50
13326;DHT22;6732;51.044;3.746;2023-03-23T16:00:45;14.80;79.90
13326;DHT22;6732;51.044;3.746;2023-03-23T16:03:18;14.70;80.30
13326;DHT22;6732;51.044;3.746;2023-03-23T16:05:45;14.60;80.60
13326;DHT22;6732;51.044;3.746;2023-03-23T16:08:11;14.60;80.60
13326;DHT22;6732;51.044;3.746;2023-03-23T16:10:37;14.60;80.90
13326;DHT22;6732;51.044;3.746;2023-03-23T16:13:03;14.60;80.80
13326;DHT22;6732;51.044;3.746;2023-03-23T16:15:30;14.60;80.80
13326;DHT22;6732;51.044;3.746;2023-03-23T16:17:56;14.50;80.70
13326;DHT22;6732;51.044;3.746;2023-03-23T16:20:23;14.50;80.80
13326;DHT22;6732;51.044;3.746;2023-03-23T16:22:50;14.50;80.80
13326;DHT22;6732;51.044;3.746;2023-03-23T16:25:17;14.50;80.80
13326;DHT22;6732;51.044;3.746;2023-03-23T16:27:44;14.50;80.70
13326;DHT22;6732;51.044;3.746;2023-03-23T16:30:17;14.50;80.10
13326;DHT22;6732;51.044;3.746;2023-03-23T16:32:43;14.50;79.40
13326;DHT22;6732;51.044;3.746;2023-03-23T16:35:09;14.50;79.40
13326;DHT22;6732;51.044;3.746;2023-03-23T16:37:36;14.50;79.60
13326;DHT22;6732;51.044;3.746;2023-03-23T16:40:04;14.50;79.30
13326;DHT22;6732;51.044;3.746;2023-03-23T16:42:30;14.50;79.30
13326;DHT22;6732;51.044;3.746;2023-03-23T16:44:56;14.50;78.90
13326;DHT22;6732;51.044;3.746;2023-03-23T16:47:22;14.50;78.80
13326;DHT22;6732;51.044;3.746;2023-03-23T16:49:53;14.50;78.70
13326;DHT22;6732;51.044;3.746;2023-03-23T16:52:19;14.50;78.20
13326;DHT22;6732;51.044;3.746;2023-03-23T16:54:45;14.50;78.50
13326;DHT22;6732;51.044;3.746;2023-03-23T16:57:11;14.50;78.30
13326;DHT22;6732;51.044;3.746;2023-03-23T16:59:37;14.50;78.30
13326;DHT22;6732;51.044;3.746;2023-03-23T17:02:03;14.50;78.40
13326;DHT22;6732;51.044;3.746;2023-03-23T17:04:30;14.50;78.30
13326;DHT22;6732;51.044;3.746;2023-03-23T17:06:56;14.50;78.40
13326;DHT22;6732;51.044;3.746;2023-03-23T17:09:25;14.50;78.40
13326;DHT22;6732;51.044;3.746;2023-03-23T17:11:52;14.40;78.40
13326;DHT22;6732;51.044;3.746;2023-03-23T17:14:18;14.50;78.50
13326;DHT22;6732;51.044;3.746;2023-03-23T17:16:45;14.40;78.70
13326;DHT22;6732;51.044;3.746;2023-03-23T17:19:11;14.40;78.30
13326;DHT22;6732;51.044;3.746;2023-03-23T17:21:39;14.40;78.40
13326;DHT22;6732;51.044;3.746;2023-03-23T17:24:06;14.50;78.50
13326;DHT22;6732;51.044;3.746;2023-03-23T17:26:33;14.40;78.60
13326;DHT22;6732;51.044;3.746;2023-03-23T17:28:59;14.40;78.50
13326;DHT22;6732;51.044;3.746;2023-03-23T17:31:25;14.40;78.70
13326;DHT22;6732;51.044;3.746;2023-03-23T17:33:51;14.40;78.50
13326;DHT22;6732;51.044;3.746;2023-03-23T17:36:18;14.40;78.40
13326;DHT22;6732;51.044;3.746;2023-03-23T17:38:44;14.40;78.30
13326;DHT22;6732;51.044;3.746;2023-03-23T17:41:09;14.40;78.40
13326;DHT22;6732;51.044;3.746;2023-03-23T17:43:36;14.40;78.30
13326;DHT22;6732;51.044;3.746;2023-03-23T17:46:06;14.40;78.30
13326;DHT22;6732;51.044;3.746;2023-03-23T17:48:32;14.40;78.30
13326;DHT22;6732;51.044;3.746;2023-03-23T17:50:59;14.40;78.10
13326;DHT22;6732;51.044;3.746;2023-03-23T17:53:28;14.40;78.10
13326;DHT22;6732;51.044;3.746;2023-03-23T17:55:55;14.30;78.20
13326;DHT22;6732;51.044;3.746;2023-03-23T17:58:21;14.40;77.90
13326;DHT22;6732;51.044;3.746;2023-03-23T18:00:48;14.40;77.90
13326;DHT22;6732;51.044;3.746;2023-03-23T18:03:13;14.30;78.10
13326;DHT22;6732;51.044;3.746;2023-03-23T18:05:40;14.30;78.40
13326;DHT22;6732;51.044;3.746;2023-03-23T18:08:06;14.30;78.80
13326;DHT22;6732;51.044;3.746;2023-03-23T18:10:32;14.30;79.10
13326;DHT22;6732;51.044;3.746;2023-03-23T18:13:06;14.30;79.40
13326;DHT22;6732;51.044;3.746;2023-03-23T18:15:32;14.30;79.70
13326;DHT22;6732;51.044;3.746;2023-03-23T18:17:59;14.30;80.00
13326;DHT22;6732;51.044;3.746;2023-03-23T18:20:28;14.20;80.50
13326;DHT22;6732;51.044;3.746;2023-03-23T18:22:55;14.30;80.90
13326;DHT22;6732;51.044;3.746;2023-03-23T18:25:21;14.20;81.20
13326;DHT22;6732;51.044;3.746;2023-03-23T18:27:47;14.20;81.40
13326;DHT22;6732;51.044;3.746;2023-03-23T18:30:13;14.20;81.80
13326;DHT22;6732;51.044;3.746;2023-03-23T18:32:39;14.10;82.00
13326;DHT22;6732;51.044;3.746;2023-03-23T18:35:08;14.10;82.20
13326;DHT22;6732;51.044;3.746;2023-03-23T18:37:34;14.10;82.30
13326;DHT22;6732;51.044;3.746;2023-03-23T18:40:01;14.10;82.40
13326;DHT22;6732;51.044;3.746;2023-03-23T18:42:30;14.10;82.70
13326;DHT22;6732;51.044;3.746;2023-03-23T18:44:56;14.00;82.80
13326;DHT22;6732;51.044;3.746;2023-03-23T18:47:25;14.00;82.90
13326;DHT22;6732;51.044;3.746;2023-03-23T18:49:51;14.00;83.20
13326;DHT22;6732;51.044;3.746;2023-03-23T18:52:21;14.00;83.40
13326;DHT22;6732;51.044;3.746;2023-03-23T18:54:47;14.00;83.50
13326;DHT22;6732;51.044;3.746;2023-03-23T18:57:14;14.00;83.60
13326;DHT22;6732;51.044;3.746;2023-03-23T18:59:42;14.00;83.40
13326;DHT22;6732;51.044;3.746;2023-03-23T19:02:09;14.00;83.20
13326;DHT22;6732;51.044;3.746;2023-03-23T19:04:37;13.90;83.20
13326;DHT22;6732;51.044;3.746;2023-03-23T19:07:04;13.90;83.00
13326;DHT22;6732;51.044;3.746;2023-03-23T19:09:31;13.90;83.20
13326;DHT22;6732;51.044;3.746;2023-03-23T19:11:57;13.90;83.10
13326;DHT22;6732;51.044;3.746;2023-03-23T19:14:24;13.90;83.00
13326;DHT22;6732;51.044;3.746;2023-03-23T19:16:50;13.90;83.00
13326;DHT22;6732;51.044;3.746;2023-03-23T19:19:17;13.90;83.00
13326;DHT22;6732;51.044;3.746;2023-03-23T19:21:43;13.90;82.90
13326;DHT22;6732;51.044;3.746;2023-03-23T19:24:10;13.80;82.80
13326;DHT22;6732;51.044;3.746;2023-03-23T19:26:39;13.80;82.80
13326;DHT22;6732;51.044;3.746;2023-03-23T19:29:06;13.80;82.70
13326;DHT22;6732;51.044;3.746;2023-03-23T19:31:32;13.80;82.70
13326;DHT22;6732;51.044;3.746;2023-03-23T19:33:58;13.80;82.60
13326;DHT22;6732;51.044;3.746;2023-03-23T19:36:24;13.80;82.80
13326;DHT22;6732;51.044;3.746;2023-03-23T19:38:51;13.80;82.50
13326;DHT22;6732;51.044;3.746;2023-03-23T19:41:19;13.80;82.40
13326;DHT22;6732;51.044;3.746;2023-03-23T19:43:45;13.80;82.90
13326;DHT22;6732;51.044;3.746;2023-03-23T19:46:12;13.70;82.50
13326;DHT22;6732;51.044;3.746;2023-03-23T19:48:38;13.70;82.70
13326;DHT22;6732;51.044;3.746;2023-03-23T19:51:05;13.70;82.70
13326;DHT22;6732;51.044;3.746;2023-03-23T19:53:32;13.70;82.50
13326;DHT22;6732;51.044;3.746;2023-03-23T19:55:58;13.70;82.40
13326;DHT22;6732;51.044;3.746;2023-03-23T19:58:25;13.70;82.10
13326;DHT22;6732;51.044;3.746;2023-03-23T20:00:52;13.70;82.00
13326;DHT22;6732;51.044;3.746;2023-03-23T20:03:18;13.60;82.10
13326;DHT22;6732;51.044;3.746;2023-03-23T20:05:44;13.60;82.00
13326;DHT22;6732;51.044;3.746;2023-03-23T20:08:10;13.60;81.70
13326;DHT22;6732;51.044;3.746;2023-03-23T20:10:38;13.60;81.70
13326;DHT22;6732;51.044;3.746;2023-03-23T20:13:06;13.60;81.60
13326;DHT22;6732;51.044;3.746;2023-03-23T20:15:33;13.60;81.90
13326;DHT22;6732;51.044;3.746;2023-03-23T20:17:59;13.60;81.90
13326;DHT22;6732;51.044;3.746;2023-03-23T20:20:25;13.60;81.70
13326;DHT22;6732;51.044;3.746;2023-03-23T20:22:51;13.50;81.70
13326;DHT22;6732;51.044;3.746;2023-03-23T20:25:18;13.50;81.50
13326;DHT22;6732;51.044;3.746;2023-03-23T20:27:44;13.50;81.60
13326;DHT22;6732;51.044;3.746;2023-03-23T20:30:11;13.50;81.40
13326;DHT22;6732;51.044;3.746;2023-03-23T20:32:38;13.50;81.70
13326;DHT22;6732;51.044;3.746;2023-03-23T20:35:08;13.50;81.80
13326;DHT22;6732;51.044;3.746;2023-03-23T20:37:35;13.40;82.00
13326;DHT22;6732;51.044;3.746;2023-03-23T20:40:07;13.40;82.30
13326;DHT22;6732;51.044;3.746;2023-03-23T20:42:34;13.40;82.30
13326;DHT22;6732;51.044;3.746;2023-03-23T20:45:00;13.40;82.40
13326;DHT22;6732;51.044;3.746;2023-03-23T20:47:27;13.40;82.40
13326;DHT22;6732;51.044;3.746;2023-03-23T20:49:54;13.40;82.60
13326;DHT22;6732;51.044;3.746;2023-03-23T20:52:22;13.40;82.80
13326;DHT22;6732;51.044;3.746;2023-03-23T20:54:48;13.40;82.80
13326;DHT22;6732;51.044;3.746;2023-03-23T20:57:15;13.30;83.00
13326;DHT22;6732;51.044;3.746;2023-03-23T20:59:42;13.40;83.10
13326;DHT22;6732;51.044;3.746;2023-03-23T21:02:12;13.30;83.10
13326;DHT22;6732;51.044;3.746;2023-03-23T21:04:40;13.30;83.20
13326;DHT22;6732;51.044;3.746;2023-03-23T21:07:07;13.30;83.40
13326;DHT22;6732;51.044;3.746;2023-03-23T21:09:34;13.30;83.20
13326;DHT22;6732;51.044;3.746;2023-03-23T21:12:01;13.30;83.20
13326;DHT22;6732;51.044;3.746;2023-03-23T21:14:32;13.30;83.30
13326;DHT22;6732;51.044;3.746;2023-03-23T21:16:58;13.20;83.40
13326;DHT22;6732;51.044;3.746;2023-03-23T21:19:27;13.20;83.50
13326;DHT22;6732;51.044;3.746;2023-03-23T21:21:55;13.20;83.60
13326;DHT22;6732;51.044;3.746;2023-03-23T21:24:21;13.30;83.70
13326;DHT22;6732;51.044;3.746;2023-03-23T21:26:52;13.30;83.70
13326;DHT22;6732;51.044;3.746;2023-03-23T21:29:18;13.30;83.60
13326;DHT22;6732;51.044;3.746;2023-03-23T21:31:45;13.30;83.60
13326;DHT22;6732;51.044;3.746;2023-03-23T21:34:11;13.30;83.50
13326;DHT22;6732;51.044;3.746;2023-03-23T21:36:39;13.20;83.40
13326;DHT22;6732;51.044;3.746;2023-03-23T21:39:05;13.20;83.30
13326;DHT22;6732;51.044;3.746;2023-03-23T21:41:32;13.20;83.50
13326;DHT22;6732;51.044;3.746;2023-03-23T21:44:00;13.20;83.60
13326;DHT22;6732;51.044;3.746;2023-03-23T21:46:28;13.20;83.80
13326;DHT22;6732;51.044;3.746;2023-03-23T21:48:54;13.20;83.90
13326;DHT22;6732;51.044;3.746;2023-03-23T21:51:26;13.20;83.90
13326;DHT22;6732;51.044;3.746;2023-03-23T21:53:53;13.20;84.00
13326;DHT22;6732;51.044;3.746;2023-03-23T21:56:21;13.20;84.10
13326;DHT22;6732;51.044;3.746;2023-03-23T21:58:47;13.20;84.20
13326;DHT22;6732;51.044;3.746;2023-03-23T22:01:13;13.20;84.20
13326;DHT22;6732;51.044;3.746;2023-03-23T22:03:39;13.20;84.30
13326;DHT22;6732;51.044;3.746;2023-03-23T22:06:12;13.20;84.40
13326;DHT22;6732;51.044;3.746;2023-03-23T22:08:39;13.20;84.70
13326;DHT22;6732;51.044;3.746;2023-03-23T22:11:11;13.20;84.80
13326;DHT22;6732;51.044;3.746;2023-03-23T22:13:38;13.20;84.90
13326;DHT22;6732;51.044;3.746;2023-03-23T22:16:08;13.20;85.10
13326;DHT22;6732;51.044;3.746;2023-03-23T22:18:35;13.20;85.20
13326;DHT22;6732;51.044;3.746;2023-03-23T22:21:04;13.20;85.20
13326;DHT22;6732;51.044;3.746;2023-03-23T22:23:30;13.20;85.30
13326;DHT22;6732;51.044;3.746;2023-03-23T22:25:56;13.20;85.60
13326;DHT22;6732;51.044;3.746;2023-03-23T22:28:24;13.20;85.60
13326;DHT22;6732;51.044;3.746;2023-03-23T22:31:05;13.20;85.80
13326;DHT22;6732;51.044;3.746;2023-03-23T22:33:32;13.20;86.10
13326;DHT22;6732;51.044;3.746;2023-03-23T22:35:59;13.20;86.10
13326;DHT22;6732;51.044;3.746;2023-03-23T22:38:35;13.20;86.20
13326;DHT22;6732;51.044;3.746;2023-03-23T22:41:03;13.20;86.40
13326;DHT22;6732;51.044;3.746;2023-03-23T22:43:35;13.20;86.50
13326;DHT22;6732;51.044;3.746;2023-03-23T22:46:02;13.20;86.70
13326;DHT22;6732;51.044;3.746;2023-03-23T22:48:28;13.20;86.90
13326;DHT22;6732;51.044;3.746;2023-03-23T22:50:54;13.20;87.00
13326;DHT22;6732;51.044;3.746;2023-03-23T22:53:20;13.20;87.20
13326;DHT22;6732;51.044;3.746;2023-03-23T22:55:49;13.10;87.30
13326;DHT22;6732;51.044;3.746;2023-03-23T22:58:16;13.20;87.40
13326;DHT22;6732;51.044;3.746;2023-03-23T23:00:44;13.10;87.50
13326;DHT22;6732;51.044;3.746;2023-03-23T23:03:10;13.10;87.40
13326;DHT22;6732;51.044;3.746;2023-03-23T23:05:41;13.10;87.30
13326;DHT22;6732;51.044;3.746;2023-03-23T23:08:08;13.20;87.50
13326;DHT22;6732;51.044;3.746;2023-03-23T23:10:42;13.20;87.50
13326;DHT22;6732;51.044;3.746;2023-03-23T23:13:10;13.20;87.50
13326;DHT22;6732;51.044;3.746;2023-03-23T23:15:39;13.20;87.40
13326;DHT22;6732;51.044;3.746;2023-03-23T23:18:05;13.20;87.50
13326;DHT22;6732;51.044;3.746;2023-03-23T23:20:32;13.20;87.30
13326;DHT22;6732;51.044;3.746;2023-03-23T23:22:59;13.20;87.20
13326;DHT22;6732;51.044;3.746;2023-03-23T23:25:25;13.20;87.10
13326;DHT22;6732;51.044;3.746;2023-03-23T23:27:51;13.20;87.10
13326;DHT22;6732;51.044;3.746;2023-03-23T23:30:17;13.20;87.10
13326;DHT22;6732;51.044;3.746;2023-03-23T23:32:43;13.20;87.10
13326;DHT22;6732;51.044;3.746;2023-03-23T23:35:11;13.20;87.10
13326;DHT22;6732;51.044;3.746;2023-03-23T23:37:37;13.20;87.10
13326;DHT22;6732;51.044;3.746;2023-03-23T23:40:04;13.20;87.10
13326;DHT22;6732;51.044;3.746;2023-03-23T23:42:35;13.20;86.90
13326;DHT22;6732;51.044;3.746;2023-03-23T23:45:01;13.30;86.80
13326;DHT22;6732;51.044;3.746;2023-03-23T23:47:28;13.20;86.90
13326;DHT22;6732;51.044;3.746;2023-03-23T23:49:54;13.20;86.70
13326;DHT22;6732;51.044;3.746;2023-03-23T23:52:20;13.30;86.70
13326;DHT22;6732;51.044;3.746;2023-03-23T23:54:45;13.20;86.90
13326;DHT22;6732;51.044;3.746;2023-03-23T23:57:14;13.20;87.00
13326;DHT22;6732;51.044;3.746;2023-03-23T23:59:41;13.20;86.90
